Weather at Campo di Volo Aerlight Faenza

Public forecast

Using degrees Celsius for public forecast. Weather courtesy of forecast.io.

Closest aviation weather report (METAR) to Campo di Volo Aerlight Faenza

Closest report is Forlì Airport, 10.7 nm (19.8 km) SE. Retrieved 2022/07/04 10:50 UTC (18 minutes ago):

LIPK 041050Z VRB03KT CAVOK 35/19 Q1014

Closest aviation forecast (TAF) to Campo di Volo Aerlight Faenza

Closest forecast is Forlì Airport, 10.7 nm (19.8 km) SE. Retrieved 2022/07/04 06:00 UTC (5 hours ago):

TAF LIPK 040500Z 0406/0506 VRB05KT CAVOK BECMG 0412/0414 08010KT BECMG 0416/0418 VRB05KT